Unser neues Flugzeug

Liebe Piloten, Flugschüler und Charterer,

Wir freuen uns Euch unser neues Flugzeug präsentieren zu können.

Voraussichtlich schon Mitte März haben wir unsere Mooney Ovation 2 GX bei uns in Augsburg und für Euch zur Schulung und zum Charten zur Verfügung.

Die Mooney ist Baujahr 2006, hat u.a. eine Lederausstattung, Speed Breaks, TKS Enteisungsanlage und eine Sauerstoffanlage.

Selbstverständlich ist Sie genau wie unsere Cessna 172 SP D-ETTU mit Garmin G 1000 IFR ausgestattet.

Happy landings

Christian

 

 

Flugwetter Augsburg

[source: ADDS]
METAR
EDMA 042320Z AUTO 35002KT 5000 // OVC150/// M02/M03 Q0989 =
TAF EDMA 041700Z 0418/0503 VRB03KT CAVOK BECMG 0500/0503 26008KT
TAF
TAF EDMA 041700Z 0418/0503 VRB03KT CAVOK BECMG 0500/0503 26008KT =
Cookies erleichtern die Bereitstellung unserer Dienste. Mit der Nutzung unserer Dienste erklären Sie sich damit einverstanden, dass wir Cookies verwenden.
Weitere Informationen Ok